sensor_id;sensor_type;location;lat;lon;timestamp;temperature;humidity
20057;DHT22;10189;49.546;7.906;2022-08-24T00:01:20;16.90;63.30
20057;DHT22;10189;49.546;7.906;2022-08-24T00:03:47;16.80;63.50
20057;DHT22;10189;49.546;7.906;2022-08-24T00:06:19;16.80;63.90
20057;DHT22;10189;49.546;7.906;2022-08-24T00:08:47;16.80;64.10
20057;DHT22;10189;49.546;7.906;2022-08-24T00:11:15;16.70;64.30
20057;DHT22;10189;49.546;7.906;2022-08-24T00:13:41;16.70;64.20
20057;DHT22;10189;49.546;7.906;2022-08-24T00:16:08;16.80;64.40
20057;DHT22;10189;49.546;7.906;2022-08-24T00:18:34;16.80;64.60
20057;DHT22;10189;49.546;7.906;2022-08-24T00:21:01;16.70;64.60
20057;DHT22;10189;49.546;7.906;2022-08-24T00:23:28;16.70;64.30
20057;DHT22;10189;49.546;7.906;2022-08-24T00:25:54;16.60;65.00
20057;DHT22;10189;49.546;7.906;2022-08-24T00:28:21;16.50;65.10
20057;DHT22;10189;49.546;7.906;2022-08-24T00:30:48;16.40;65.40
20057;DHT22;10189;49.546;7.906;2022-08-24T00:33:14;16.40;65.50
20057;DHT22;10189;49.546;7.906;2022-08-24T00:35:40;16.30;65.60
20057;DHT22;10189;49.546;7.906;2022-08-24T00:38:06;16.20;65.30
20057;DHT22;10189;49.546;7.906;2022-08-24T00:40:36;16.20;65.30
20057;DHT22;10189;49.546;7.906;2022-08-24T00:43:06;16.20;65.10
20057;DHT22;10189;49.546;7.906;2022-08-24T00:45:39;16.30;65.30
20057;DHT22;10189;49.546;7.906;2022-08-24T00:48:22;16.30;65.20
20057;DHT22;10189;49.546;7.906;2022-08-24T00:50:57;16.30;65.40
20057;DHT22;10189;49.546;7.906;2022-08-24T00:53:35;16.30;65.80
20057;DHT22;10189;49.546;7.906;2022-08-24T00:56:15;16.20;65.30
20057;DHT22;10189;49.546;7.906;2022-08-24T00:58:47;16.20;65.50
20057;DHT22;10189;49.546;7.906;2022-08-24T01:01:18;16.20;64.40
20057;DHT22;10189;49.546;7.906;2022-08-24T01:03:44;16.20;64.70
20057;DHT22;10189;49.546;7.906;2022-08-24T01:06:11;16.20;65.20
20057;DHT22;10189;49.546;7.906;2022-08-24T01:08:39;16.10;65.40
20057;DHT22;10189;49.546;7.906;2022-08-24T01:11:13;16.00;65.60
20057;DHT22;10189;49.546;7.906;2022-08-24T01:13:45;16.10;66.10
20057;DHT22;10189;49.546;7.906;2022-08-24T01:16:15;16.10;65.80
20057;DHT22;10189;49.546;7.906;2022-08-24T01:24:41;15.90;65.40
20057;DHT22;10189;49.546;7.906;2022-08-24T01:27:09;15.80;65.90
20057;DHT22;10189;49.546;7.906;2022-08-24T01:29:37;15.90;66.30
20057;DHT22;10189;49.546;7.906;2022-08-24T01:32:06;15.90;66.30
20057;DHT22;10189;49.546;7.906;2022-08-24T01:34:34;16.00;66.00
20057;DHT22;10189;49.546;7.906;2022-08-24T01:37:01;16.00;65.40
20057;DHT22;10189;49.546;7.906;2022-08-24T01:39:34;16.00;65.40
20057;DHT22;10189;49.546;7.906;2022-08-24T01:42:03;15.90;65.70
20057;DHT22;10189;49.546;7.906;2022-08-24T01:44:32;15.90;66.00
20057;DHT22;10189;49.546;7.906;2022-08-24T01:47:01;15.90;66.10
20057;DHT22;10189;49.546;7.906;2022-08-24T01:49:31;15.80;66.50
20057;DHT22;10189;49.546;7.906;2022-08-24T01:51:59;15.80;65.90
20057;DHT22;10189;49.546;7.906;2022-08-24T01:54:25;15.90;65.40
20057;DHT22;10189;49.546;7.906;2022-08-24T01:56:52;16.00;64.90
20057;DHT22;10189;49.546;7.906;2022-08-24T01:59:20;16.20;64.20
20057;DHT22;10189;49.546;7.906;2022-08-24T02:01:50;16.30;63.80
20057;DHT22;10189;49.546;7.906;2022-08-24T02:04:19;16.20;63.70
20057;DHT22;10189;49.546;7.906;2022-08-24T02:06:46;16.20;63.60
20057;DHT22;10189;49.546;7.906;2022-08-24T02:09:14;16.10;64.30
20057;DHT22;10189;49.546;7.906;2022-08-24T02:11:41;16.10;64.50
20057;DHT22;10189;49.546;7.906;2022-08-24T02:14:11;16.00;65.00
20057;DHT22;10189;49.546;7.906;2022-08-24T02:16:38;15.90;65.10
20057;DHT22;10189;49.546;7.906;2022-08-24T02:19:05;15.80;64.80
20057;DHT22;10189;49.546;7.906;2022-08-24T02:21:31;15.80;65.20
20057;DHT22;10189;49.546;7.906;2022-08-24T02:23:57;15.70;65.00
20057;DHT22;10189;49.546;7.906;2022-08-24T02:26:23;15.70;65.60
20057;DHT22;10189;49.546;7.906;2022-08-24T02:28:49;15.70;66.50
20057;DHT22;10189;49.546;7.906;2022-08-24T02:31:16;15.70;66.20
20057;DHT22;10189;49.546;7.906;2022-08-24T02:33:43;15.60;66.30
20057;DHT22;10189;49.546;7.906;2022-08-24T02:36:10;15.60;66.80
20057;DHT22;10189;49.546;7.906;2022-08-24T02:38:38;15.50;67.00
20057;DHT22;10189;49.546;7.906;2022-08-24T02:41:10;15.50;67.20
20057;DHT22;10189;49.546;7.906;2022-08-24T02:43:36;15.50;67.40
20057;DHT22;10189;49.546;7.906;2022-08-24T02:46:02;15.40;67.00
20057;DHT22;10189;49.546;7.906;2022-08-24T02:48:28;15.30;67.10
20057;DHT22;10189;49.546;7.906;2022-08-24T02:50:55;15.30;67.40
20057;DHT22;10189;49.546;7.906;2022-08-24T02:53:21;15.30;67.40
20057;DHT22;10189;49.546;7.906;2022-08-24T02:55:48;15.30;67.80
20057;DHT22;10189;49.546;7.906;2022-08-24T02:58:16;15.40;68.00
20057;DHT22;10189;49.546;7.906;2022-08-24T03:00:47;15.30;67.70
20057;DHT22;10189;49.546;7.906;2022-08-24T03:03:16;15.30;67.80
20057;DHT22;10189;49.546;7.906;2022-08-24T03:05:42;15.20;68.10
20057;DHT22;10189;49.546;7.906;2022-08-24T03:08:08;15.20;68.00
20057;DHT22;10189;49.546;7.906;2022-08-24T03:10:34;15.10;68.50
20057;DHT22;10189;49.546;7.906;2022-08-24T03:13:02;15.10;68.90
20057;DHT22;10189;49.546;7.906;2022-08-24T03:15:29;15.10;68.80
20057;DHT22;10189;49.546;7.906;2022-08-24T03:17:55;15.10;69.00
20057;DHT22;10189;49.546;7.906;2022-08-24T03:20:22;15.10;69.10
20057;DHT22;10189;49.546;7.906;2022-08-24T03:22:50;15.10;69.10
20057;DHT22;10189;49.546;7.906;2022-08-24T03:25:19;15.20;69.10
20057;DHT22;10189;49.546;7.906;2022-08-24T03:27:50;15.30;69.00
20057;DHT22;10189;49.546;7.906;2022-08-24T03:30:17;15.30;68.90
20057;DHT22;10189;49.546;7.906;2022-08-24T03:32:44;15.30;69.00
20057;DHT22;10189;49.546;7.906;2022-08-24T03:35:12;15.30;69.20
20057;DHT22;10189;49.546;7.906;2022-08-24T03:37:39;15.20;69.50
20057;DHT22;10189;49.546;7.906;2022-08-24T03:40:06;15.10;69.30
20057;DHT22;10189;49.546;7.906;2022-08-24T03:42:34;15.10;69.10
20057;DHT22;10189;49.546;7.906;2022-08-24T03:45:00;15.10;69.30
20057;DHT22;10189;49.546;7.906;2022-08-24T03:47:26;15.10;68.90
20057;DHT22;10189;49.546;7.906;2022-08-24T03:49:53;15.00;69.20
20057;DHT22;10189;49.546;7.906;2022-08-24T03:52:21;15.00;69.00
20057;DHT22;10189;49.546;7.906;2022-08-24T03:54:50;15.00;69.20
20057;DHT22;10189;49.546;7.906;2022-08-24T03:57:16;15.00;69.30
20057;DHT22;10189;49.546;7.906;2022-08-24T03:59:43;15.00;69.40
20057;DHT22;10189;49.546;7.906;2022-08-24T04:02:09;14.90;69.30
20057;DHT22;10189;49.546;7.906;2022-08-24T04:04:36;14.80;70.10
20057;DHT22;10189;49.546;7.906;2022-08-24T04:07:02;14.90;70.30
20057;DHT22;10189;49.546;7.906;2022-08-24T04:09:29;14.80;70.10
20057;DHT22;10189;49.546;7.906;2022-08-24T04:11:55;14.80;69.80
20057;DHT22;10189;49.546;7.906;2022-08-24T04:14:24;14.70;70.10
20057;DHT22;10189;49.546;7.906;2022-08-24T04:16:54;14.70;70.20
20057;DHT22;10189;49.546;7.906;2022-08-24T04:19:26;14.70;69.90
20057;DHT22;10189;49.546;7.906;2022-08-24T04:21:54;14.70;70.40
20057;DHT22;10189;49.546;7.906;2022-08-24T04:24:22;14.60;70.10
20057;DHT22;10189;49.546;7.906;2022-08-24T04:26:48;14.50;70.40
20057;DHT22;10189;49.546;7.906;2022-08-24T04:29:16;14.50;70.70
20057;DHT22;10189;49.546;7.906;2022-08-24T04:31:50;14.50;70.80
20057;DHT22;10189;49.546;7.906;2022-08-24T04:34:17;14.40;71.10
20057;DHT22;10189;49.546;7.906;2022-08-24T04:36:44;14.40;71.10
20057;DHT22;10189;49.546;7.906;2022-08-24T04:39:11;14.40;71.30
20057;DHT22;10189;49.546;7.906;2022-08-24T04:41:43;14.40;71.40
20057;DHT22;10189;49.546;7.906;2022-08-24T04:44:10;14.50;71.40
20057;DHT22;10189;49.546;7.906;2022-08-24T04:46:38;14.60;71.20
20057;DHT22;10189;49.546;7.906;2022-08-24T04:49:04;14.60;71.30
20057;DHT22;10189;49.546;7.906;2022-08-24T04:51:31;14.50;71.50
20057;DHT22;10189;49.546;7.906;2022-08-24T04:53:58;14.30;71.70
20057;DHT22;10189;49.546;7.906;2022-08-24T04:56:24;14.20;72.20
20057;DHT22;10189;49.546;7.906;2022-08-24T04:58:54;14.20;72.70
20057;DHT22;10189;49.546;7.906;2022-08-24T05:01:24;14.30;72.60
20057;DHT22;10189;49.546;7.906;2022-08-24T05:03:54;14.30;72.20
20057;DHT22;10189;49.546;7.906;2022-08-24T05:06:23;14.30;72.00
20057;DHT22;10189;49.546;7.906;2022-08-24T05:08:52;14.30;72.10
20057;DHT22;10189;49.546;7.906;2022-08-24T05:11:20;14.30;72.40
20057;DHT22;10189;49.546;7.906;2022-08-24T05:13:51;14.30;72.60
20057;DHT22;10189;49.546;7.906;2022-08-24T05:16:19;14.50;72.30
20057;DHT22;10189;49.546;7.906;2022-08-24T05:18:46;14.60;72.00
20057;DHT22;10189;49.546;7.906;2022-08-24T05:21:17;14.70;71.80
20057;DHT22;10189;49.546;7.906;2022-08-24T05:23:46;14.70;71.60
20057;DHT22;10189;49.546;7.906;2022-08-24T05:26:20;14.70;72.30
20057;DHT22;10189;49.546;7.906;2022-08-24T05:28:53;14.90;72.30
20057;DHT22;10189;49.546;7.906;2022-08-24T05:31:24;15.00;71.40
20057;DHT22;10189;49.546;7.906;2022-08-24T05:33:52;15.00;71.20
20057;DHT22;10189;49.546;7.906;2022-08-24T05:36:22;15.10;71.10
20057;DHT22;10189;49.546;7.906;2022-08-24T05:38:52;15.20;70.90
20057;DHT22;10189;49.546;7.906;2022-08-24T05:41:20;15.30;70.70
20057;DHT22;10189;49.546;7.906;2022-08-24T05:43:53;15.40;71.10
20057;DHT22;10189;49.546;7.906;2022-08-24T05:46:19;15.60;70.50
20057;DHT22;10189;49.546;7.906;2022-08-24T05:48:46;15.70;69.50
20057;DHT22;10189;49.546;7.906;2022-08-24T05:51:41;15.70;68.90
20057;DHT22;10189;49.546;7.906;2022-08-24T05:54:08;15.90;68.50
20057;DHT22;10189;49.546;7.906;2022-08-24T05:56:47;15.90;67.80
20057;DHT22;10189;49.546;7.906;2022-08-24T05:59:14;15.90;67.90
20057;DHT22;10189;49.546;7.906;2022-08-24T06:01:43;16.20;68.60
20057;DHT22;10189;49.546;7.906;2022-08-24T06:04:09;16.40;68.00
20057;DHT22;10189;49.546;7.906;2022-08-24T06:06:35;16.70;67.00
20057;DHT22;10189;49.546;7.906;2022-08-24T06:09:01;16.90;65.50
20057;DHT22;10189;49.546;7.906;2022-08-24T06:11:32;17.10;64.70
20057;DHT22;10189;49.546;7.906;2022-08-24T06:14:08;17.20;65.20
20057;DHT22;10189;49.546;7.906;2022-08-24T06:16:44;17.20;64.50
20057;DHT22;10189;49.546;7.906;2022-08-24T06:19:14;17.40;64.90
20057;DHT22;10189;49.546;7.906;2022-08-24T06:21:43;17.60;64.20
20057;DHT22;10189;49.546;7.906;2022-08-24T06:24:13;17.60;62.80
20057;DHT22;10189;49.546;7.906;2022-08-24T06:26:44;17.70;63.00
20057;DHT22;10189;49.546;7.906;2022-08-24T06:29:29;17.80;62.30
20057;DHT22;10189;49.546;7.906;2022-08-24T06:32:08;17.90;61.80
20057;DHT22;10189;49.546;7.906;2022-08-24T06:34:34;18.00;60.60
20057;DHT22;10189;49.546;7.906;2022-08-24T06:37:01;18.10;60.10
20057;DHT22;10189;49.546;7.906;2022-08-24T06:39:26;18.20;60.40
20057;DHT22;10189;49.546;7.906;2022-08-24T06:41:54;18.30;60.10
20057;DHT22;10189;49.546;7.906;2022-08-24T06:44:29;18.40;59.70
20057;DHT22;10189;49.546;7.906;2022-08-24T06:47:03;18.60;60.50
20057;DHT22;10189;49.546;7.906;2022-08-24T06:49:30;18.80;59.70
20057;DHT22;10189;49.546;7.906;2022-08-24T06:51:56;18.90;58.50
20057;DHT22;10189;49.546;7.906;2022-08-24T06:54:22;19.10;58.80
20057;DHT22;10189;49.546;7.906;2022-08-24T06:56:49;19.20;58.60
20057;DHT22;10189;49.546;7.906;2022-08-24T06:59:15;19.50;58.40
20057;DHT22;10189;49.546;7.906;2022-08-24T07:01:41;19.70;57.90
20057;DHT22;10189;49.546;7.906;2022-08-24T07:04:08;19.80;58.20
20057;DHT22;10189;49.546;7.906;2022-08-24T07:06:55;20.00;57.10
20057;DHT22;10189;49.546;7.906;2022-08-24T07:09:21;19.90;56.80
20057;DHT22;10189;49.546;7.906;2022-08-24T07:11:50;19.90;56.70
20057;DHT22;10189;49.546;7.906;2022-08-24T07:14:17;19.90;57.20
20057;DHT22;10189;49.546;7.906;2022-08-24T07:16:46;20.00;58.20
20057;DHT22;10189;49.546;7.906;2022-08-24T07:19:13;20.20;59.00
20057;DHT22;10189;49.546;7.906;2022-08-24T07:21:39;20.40;57.80
20057;DHT22;10189;49.546;7.906;2022-08-24T07:24:05;20.50;57.90
20057;DHT22;10189;49.546;7.906;2022-08-24T07:26:37;20.70;57.00
20057;DHT22;10189;49.546;7.906;2022-08-24T07:29:08;21.00;56.60
20057;DHT22;10189;49.546;7.906;2022-08-24T07:31:42;21.20;57.40
20057;DHT22;10189;49.546;7.906;2022-08-24T07:34:14;21.50;55.90
20057;DHT22;10189;49.546;7.906;2022-08-24T07:36:42;21.70;54.80
20057;DHT22;10189;49.546;7.906;2022-08-24T07:39:08;21.80;54.00
20057;DHT22;10189;49.546;7.906;2022-08-24T07:41:41;22.00;54.10
20057;DHT22;10189;49.546;7.906;2022-08-24T07:44:10;22.10;52.60
20057;DHT22;10189;49.546;7.906;2022-08-24T07:46:40;22.30;52.80
20057;DHT22;10189;49.546;7.906;2022-08-24T07:49:08;22.40;50.90
20057;DHT22;10189;49.546;7.906;2022-08-24T07:51:37;22.60;53.50
20057;DHT22;10189;49.546;7.906;2022-08-24T07:54:04;22.80;51.60
20057;DHT22;10189;49.546;7.906;2022-08-24T07:56:36;22.90;48.50
20057;DHT22;10189;49.546;7.906;2022-08-24T07:59:03;23.10;49.70
20057;DHT22;10189;49.546;7.906;2022-08-24T08:01:29;23.20;50.70
20057;DHT22;10189;49.546;7.906;2022-08-24T08:03:56;23.40;48.80
20057;DHT22;10189;49.546;7.906;2022-08-24T08:06:22;23.70;50.70
20057;DHT22;10189;49.546;7.906;2022-08-24T08:08:53;23.90;49.40
20057;DHT22;10189;49.546;7.906;2022-08-24T08:11:19;24.20;47.40
20057;DHT22;10189;49.546;7.906;2022-08-24T08:13:46;24.40;47.30
20057;DHT22;10189;49.546;7.906;2022-08-24T08:16:12;24.60;46.10
20057;DHT22;10189;49.546;7.906;2022-08-24T08:18:38;24.90;46.20
20057;DHT22;10189;49.546;7.906;2022-08-24T08:21:08;25.00;45.10
20057;DHT22;10189;49.546;7.906;2022-08-24T08:23:54;25.20;44.90
20057;DHT22;10189;49.546;7.906;2022-08-24T08:26:41;25.30;43.70
20057;DHT22;10189;49.546;7.906;2022-08-24T08:29:17;25.50;44.60
20057;DHT22;10189;49.546;7.906;2022-08-24T08:31:44;25.70;43.40
20057;DHT22;10189;49.546;7.906;2022-08-24T08:34:11;25.80;43.00
20057;DHT22;10189;49.546;7.906;2022-08-24T08:36:40;25.90;42.50
20057;DHT22;10189;49.546;7.906;2022-08-24T08:39:09;25.80;42.90
20057;DHT22;10189;49.546;7.906;2022-08-24T08:44:55;25.80;42.40
20057;DHT22;10189;49.546;7.906;2022-08-24T08:50:23;25.70;42.20
20057;DHT22;10189;49.546;7.906;2022-08-24T08:56:25;25.70;43.00
20057;DHT22;10189;49.546;7.906;2022-08-24T09:02:52;26.20;42.60
20057;DHT22;10189;49.546;7.906;2022-08-24T09:23:50;26.80;40.70
20057;DHT22;10189;49.546;7.906;2022-08-24T09:29:16;27.10;41.00
20057;DHT22;10189;49.546;7.906;2022-08-24T09:34:38;27.20;39.80
20057;DHT22;10189;49.546;7.906;2022-08-24T09:37:33;27.10;40.30
20057;DHT22;10189;49.546;7.906;2022-08-24T09:52:36;27.80;39.20
20057;DHT22;10189;49.546;7.906;2022-08-24T10:00:44;27.90;38.80
20057;DHT22;10189;49.546;7.906;2022-08-24T10:20:59;29.10;36.20
20057;DHT22;10189;49.546;7.906;2022-08-24T10:38:49;29.00;35.30
20057;DHT22;10189;49.546;7.906;2022-08-24T10:45:00;29.20;34.60
20057;DHT22;10189;49.546;7.906;2022-08-24T10:53:33;29.20;34.10
20057;DHT22;10189;49.546;7.906;2022-08-24T10:56:08;29.10;33.60
20057;DHT22;10189;49.546;7.906;2022-08-24T11:02:25;29.20;33.10
20057;DHT22;10189;49.546;7.906;2022-08-24T11:05:03;29.20;32.80
20057;DHT22;10189;49.546;7.906;2022-08-24T11:07:31;29.30;33.40
20057;DHT22;10189;49.546;7.906;2022-08-24T11:10:00;29.50;33.40
20057;DHT22;10189;49.546;7.906;2022-08-24T11:12:49;29.50;32.90
20057;DHT22;10189;49.546;7.906;2022-08-24T11:15:22;29.30;32.70
20057;DHT22;10189;49.546;7.906;2022-08-24T11:17:57;29.20;33.30
20057;DHT22;10189;49.546;7.906;2022-08-24T11:20:40;29.10;34.10
20057;DHT22;10189;49.546;7.906;2022-08-24T11:23:17;29.30;33.80
20057;DHT22;10189;49.546;7.906;2022-08-24T11:26:00;29.40;33.50
20057;DHT22;10189;49.546;7.906;2022-08-24T11:28:35;29.50;33.60
20057;DHT22;10189;49.546;7.906;2022-08-24T11:31:42;29.40;33.50
20057;DHT22;10189;49.546;7.906;2022-08-24T11:34:13;29.50;32.80
20057;DHT22;10189;49.546;7.906;2022-08-24T11:36:42;29.30;32.20
20057;DHT22;10189;49.546;7.906;2022-08-24T11:39:28;29.20;32.80
20057;DHT22;10189;49.546;7.906;2022-08-24T11:45:02;29.40;33.70
20057;DHT22;10189;49.546;7.906;2022-08-24T11:47:47;29.30;32.30
20057;DHT22;10189;49.546;7.906;2022-08-24T11:53:50;29.30;32.90
20057;DHT22;10189;49.546;7.906;2022-08-24T11:56:51;29.40;33.30
20057;DHT22;10189;49.546;7.906;2022-08-24T12:02:26;29.30;32.00
20057;DHT22;10189;49.546;7.906;2022-08-24T12:08:11;29.30;32.30
20057;DHT22;10189;49.546;7.906;2022-08-24T12:19:20;29.50;32.50
20057;DHT22;10189;49.546;7.906;2022-08-24T12:21:59;29.50;32.30
20057;DHT22;10189;49.546;7.906;2022-08-24T12:30:14;29.60;32.00
20057;DHT22;10189;49.546;7.906;2022-08-24T12:32:45;29.50;32.50
20057;DHT22;10189;49.546;7.906;2022-08-24T12:40:56;29.60;32.50
20057;DHT22;10189;49.546;7.906;2022-08-24T12:43:58;29.50;32.10
20057;DHT22;10189;49.546;7.906;2022-08-24T12:46:32;29.40;32.90
20057;DHT22;10189;49.546;7.906;2022-08-24T12:49:07;29.60;32.90
20057;DHT22;10189;49.546;7.906;2022-08-24T13:00:14;29.80;31.30
20057;DHT22;10189;49.546;7.906;2022-08-24T13:03:04;29.90;31.40
20057;DHT22;10189;49.546;7.906;2022-08-24T13:05:43;30.10;31.20
20057;DHT22;10189;49.546;7.906;2022-08-24T13:08:21;30.00;32.00
20057;DHT22;10189;49.546;7.906;2022-08-24T13:29:42;30.30;31.50
20057;DHT22;10189;49.546;7.906;2022-08-24T13:32:44;30.20;32.60
20057;DHT22;10189;49.546;7.906;2022-08-24T13:38:25;30.20;32.20
20057;DHT22;10189;49.546;7.906;2022-08-24T13:44:04;30.30;31.70
20057;DHT22;10189;49.546;7.906;2022-08-24T13:47:13;30.20;31.20
20057;DHT22;10189;49.546;7.906;2022-08-24T14:05:29;29.90;32.70
20057;DHT22;10189;49.546;7.906;2022-08-24T14:17:36;29.90;34.00
20057;DHT22;10189;49.546;7.906;2022-08-24T14:25:47;30.30;33.10
20057;DHT22;10189;49.546;7.906;2022-08-24T14:28:35;30.30;32.70
20057;DHT22;10189;49.546;7.906;2022-08-24T14:31:19;30.30;32.50
20057;DHT22;10189;49.546;7.906;2022-08-24T14:33:55;30.30;32.20
20057;DHT22;10189;49.546;7.906;2022-08-24T14:39:58;30.20;33.10
20057;DHT22;10189;49.546;7.906;2022-08-24T14:42:39;30.40;32.40
20057;DHT22;10189;49.546;7.906;2022-08-24T14:46:08;30.50;32.20
20057;DHT22;10189;49.546;7.906;2022-08-24T14:52:09;30.30;31.90
20057;DHT22;10189;49.546;7.906;2022-08-24T14:57:41;30.10;33.20
20057;DHT22;10189;49.546;7.906;2022-08-24T15:00:23;30.10;32.10
20057;DHT22;10189;49.546;7.906;2022-08-24T15:09:18;29.70;32.20
20057;DHT22;10189;49.546;7.906;2022-08-24T15:11:50;29.70;33.40
20057;DHT22;10189;49.546;7.906;2022-08-24T15:17:19;29.90;31.70
20057;DHT22;10189;49.546;7.906;2022-08-24T15:20:02;30.00;32.00
20057;DHT22;10189;49.546;7.906;2022-08-24T15:28:24;30.00;31.60
20057;DHT22;10189;49.546;7.906;2022-08-24T15:31:17;29.90;31.60
20057;DHT22;10189;49.546;7.906;2022-08-24T15:33:56;29.80;31.70
20057;DHT22;10189;49.546;7.906;2022-08-24T15:36:25;29.70;32.30
20057;DHT22;10189;49.546;7.906;2022-08-24T15:38:55;29.70;31.70
20057;DHT22;10189;49.546;7.906;2022-08-24T15:41:25;29.70;32.10
20057;DHT22;10189;49.546;7.906;2022-08-24T15:46:23;29.70;32.50
20057;DHT22;10189;49.546;7.906;2022-08-24T15:49:12;29.70;32.20
20057;DHT22;10189;49.546;7.906;2022-08-24T15:51:49;29.60;31.80
20057;DHT22;10189;49.546;7.906;2022-08-24T15:57:04;29.60;32.30
20057;DHT22;10189;49.546;7.906;2022-08-24T15:59:53;29.60;31.60
20057;DHT22;10189;49.546;7.906;2022-08-24T16:02:34;29.60;32.00
20057;DHT22;10189;49.546;7.906;2022-08-24T16:05:35;29.60;32.20
20057;DHT22;10189;49.546;7.906;2022-08-24T16:10:49;29.60;32.60
20057;DHT22;10189;49.546;7.906;2022-08-24T16:16:05;29.70;32.00
20057;DHT22;10189;49.546;7.906;2022-08-24T16:18:59;29.80;32.10
20057;DHT22;10189;49.546;7.906;2022-08-24T16:24:26;30.30;31.00
20057;DHT22;10189;49.546;7.906;2022-08-24T16:27:21;30.50;30.40
20057;DHT22;10189;49.546;7.906;2022-08-24T16:33:38;30.80;31.00
20057;DHT22;10189;49.546;7.906;2022-08-24T16:36:09;31.20;30.50
20057;DHT22;10189;49.546;7.906;2022-08-24T16:38:49;31.40;30.30
20057;DHT22;10189;49.546;7.906;2022-08-24T16:41:18;31.30;29.70
20057;DHT22;10189;49.546;7.906;2022-08-24T16:43:47;31.00;30.80
20057;DHT22;10189;49.546;7.906;2022-08-24T16:46:20;30.80;31.30
20057;DHT22;10189;49.546;7.906;2022-08-24T16:48:47;30.70;30.90
20057;DHT22;10189;49.546;7.906;2022-08-24T16:51:13;30.60;31.20
20057;DHT22;10189;49.546;7.906;2022-08-24T16:53:39;30.60;31.40
20057;DHT22;10189;49.546;7.906;2022-08-24T16:56:05;30.50;31.50
20057;DHT22;10189;49.546;7.906;2022-08-24T16:58:33;30.60;31.20
20057;DHT22;10189;49.546;7.906;2022-08-24T17:01:04;30.90;31.10
20057;DHT22;10189;49.546;7.906;2022-08-24T17:03:30;31.00;30.60
20057;DHT22;10189;49.546;7.906;2022-08-24T17:05:56;31.10;30.70
20057;DHT22;10189;49.546;7.906;2022-08-24T17:08:24;30.90;31.00
20057;DHT22;10189;49.546;7.906;2022-08-24T17:10:51;30.90;31.00
20057;DHT22;10189;49.546;7.906;2022-08-24T17:13:17;30.90;31.10
20057;DHT22;10189;49.546;7.906;2022-08-24T17:15:44;31.00;31.00
20057;DHT22;10189;49.546;7.906;2022-08-24T17:18:11;31.20;30.90
20057;DHT22;10189;49.546;7.906;2022-08-24T17:20:38;31.30;30.90
20057;DHT22;10189;49.546;7.906;2022-08-24T17:23:05;31.40;30.50
20057;DHT22;10189;49.546;7.906;2022-08-24T17:25:33;31.20;30.80
20057;DHT22;10189;49.546;7.906;2022-08-24T17:28:00;31.00;31.70
20057;DHT22;10189;49.546;7.906;2022-08-24T17:30:26;30.60;31.20
20057;DHT22;10189;49.546;7.906;2022-08-24T17:32:52;30.50;31.90
20057;DHT22;10189;49.546;7.906;2022-08-24T17:35:20;30.20;32.10
20057;DHT22;10189;49.546;7.906;2022-08-24T17:37:47;29.90;32.00
20057;DHT22;10189;49.546;7.906;2022-08-24T17:40:21;29.60;32.10
20057;DHT22;10189;49.546;7.906;2022-08-24T17:42:49;29.30;32.40
20057;DHT22;10189;49.546;7.906;2022-08-24T17:45:16;29.20;32.70
20057;DHT22;10189;49.546;7.906;2022-08-24T17:47:43;29.00;32.50
20057;DHT22;10189;49.546;7.906;2022-08-24T17:50:11;28.90;32.70
20057;DHT22;10189;49.546;7.906;2022-08-24T17:52:39;28.70;32.80
20057;DHT22;10189;49.546;7.906;2022-08-24T17:55:08;28.60;33.00
20057;DHT22;10189;49.546;7.906;2022-08-24T17:57:36;28.50;33.10
20057;DHT22;10189;49.546;7.906;2022-08-24T18:00:04;28.40;33.60
20057;DHT22;10189;49.546;7.906;2022-08-24T18:02:38;28.20;33.70
20057;DHT22;10189;49.546;7.906;2022-08-24T18:05:05;28.00;33.90
20057;DHT22;10189;49.546;7.906;2022-08-24T18:07:33;27.90;34.00
20057;DHT22;10189;49.546;7.906;2022-08-24T18:10:02;27.90;33.80
20057;DHT22;10189;49.546;7.906;2022-08-24T18:12:31;27.70;34.20
20057;DHT22;10189;49.546;7.906;2022-08-24T18:14:57;27.60;34.40
20057;DHT22;10189;49.546;7.906;2022-08-24T18:17:31;27.50;34.80
20057;DHT22;10189;49.546;7.906;2022-08-24T18:20:00;27.40;34.80
20057;DHT22;10189;49.546;7.906;2022-08-24T18:22:27;27.20;34.90
20057;DHT22;10189;49.546;7.906;2022-08-24T18:24:54;27.10;35.60
20057;DHT22;10189;49.546;7.906;2022-08-24T18:27:29;26.90;36.10
20057;DHT22;10189;49.546;7.906;2022-08-24T18:30:01;26.70;36.10
20057;DHT22;10189;49.546;7.906;2022-08-24T18:32:29;26.50;37.10
20057;DHT22;10189;49.546;7.906;2022-08-24T18:34:55;26.30;37.20
20057;DHT22;10189;49.546;7.906;2022-08-24T18:37:21;26.00;38.20
20057;DHT22;10189;49.546;7.906;2022-08-24T18:39:49;25.80;38.20
20057;DHT22;10189;49.546;7.906;2022-08-24T18:42:15;25.60;38.20
20057;DHT22;10189;49.546;7.906;2022-08-24T18:44:42;25.40;39.00
20057;DHT22;10189;49.546;7.906;2022-08-24T18:47:08;25.30;38.90
20057;DHT22;10189;49.546;7.906;2022-08-24T18:49:34;25.20;39.00
20057;DHT22;10189;49.546;7.906;2022-08-24T18:52:01;25.00;39.30
20057;DHT22;10189;49.546;7.906;2022-08-24T18:54:34;24.90;39.40
20057;DHT22;10189;49.546;7.906;2022-08-24T18:57:02;24.80;39.90
20057;DHT22;10189;49.546;7.906;2022-08-24T18:59:29;24.70;40.00
20057;DHT22;10189;49.546;7.906;2022-08-24T19:01:55;24.60;39.90
20057;DHT22;10189;49.546;7.906;2022-08-24T19:04:45;24.50;40.30
20057;DHT22;10189;49.546;7.906;2022-08-24T19:07:12;24.40;40.60
20057;DHT22;10189;49.546;7.906;2022-08-24T19:09:39;24.30;40.70
20057;DHT22;10189;49.546;7.906;2022-08-24T19:12:06;24.20;41.60
20057;DHT22;10189;49.546;7.906;2022-08-24T19:14:35;24.10;42.30
20057;DHT22;10189;49.546;7.906;2022-08-24T19:17:02;23.90;42.70
20057;DHT22;10189;49.546;7.906;2022-08-24T19:19:28;23.80;41.90
20057;DHT22;10189;49.546;7.906;2022-08-24T19:21:54;23.70;41.80
20057;DHT22;10189;49.546;7.906;2022-08-24T19:24:25;23.70;42.70
20057;DHT22;10189;49.546;7.906;2022-08-24T19:26:52;23.70;42.70
20057;DHT22;10189;49.546;7.906;2022-08-24T19:29:18;23.50;43.90
20057;DHT22;10189;49.546;7.906;2022-08-24T19:31:45;23.40;44.00
20057;DHT22;10189;49.546;7.906;2022-08-24T19:34:12;23.30;43.50
20057;DHT22;10189;49.546;7.906;2022-08-24T19:36:39;23.20;44.40
20057;DHT22;10189;49.546;7.906;2022-08-24T19:39:06;23.10;44.60
20057;DHT22;10189;49.546;7.906;2022-08-24T19:41:33;23.00;44.80
20057;DHT22;10189;49.546;7.906;2022-08-24T19:44:01;22.80;45.30
20057;DHT22;10189;49.546;7.906;2022-08-24T19:46:49;22.80;45.30
20057;DHT22;10189;49.546;7.906;2022-08-24T19:49:16;22.50;45.80
20057;DHT22;10189;49.546;7.906;2022-08-24T19:51:43;22.30;46.20
20057;DHT22;10189;49.546;7.906;2022-08-24T19:54:09;22.10;46.50
20057;DHT22;10189;49.546;7.906;2022-08-24T19:56:35;22.00;46.70
20057;DHT22;10189;49.546;7.906;2022-08-24T19:59:07;21.80;47.40
20057;DHT22;10189;49.546;7.906;2022-08-24T20:01:43;21.70;47.40